De Winton South Calgary Airport

CEH4 · Alberta, Canadá

História da METAR CEH4 · De Winton South Calgary Airport

Abaixo você vê METARs dos últimos dias. Selecione um ano para navegar pelos METARs mais antigos, a partir do ano 2007.

2 de março de 2024

Hora Código Clima Temp. Visibilidade Tecto Vento METAR/SPECI
12:00
L
-17 °C ¼ mi 1.100 ft 360° 360° 12 - 17 kt METAR CYYC 021900Z 36012G17KT 1/4SM R35L/3500V4000FT/N R29/4000V5000FT/D R35R/3500V4500FT/U -SN BLSN VV011 M17/M20 A2964 RMK SN8 /S04/ SLP125
11:24
L
-17 °C ¼ mi 1.100 ft 010° 010° 12 kt METAR CYYC 021824Z 01012KT 1/4SM R35L/3500V4000FT/N R29/3500VP6000FT/U R35R/3500V4000FT/N -SN BLSN VV011 M17/M20 A2965 RMK SN8 SLP128
11:12
L
-17 °C ⅛ mi 1.000 ft 020° 020° 15 - 21 kt METAR CYYC 021812Z 02015G21KT 1/8SM R35L/3000V3500FT/N R29/3000V3500FT/N R35R/3000V3500FT/N -SN BLSN VV010 M17/M20 A2965 RMK SN8 SLP129
11:00
L
-17 °C ⅛ mi 1.000 ft 030° 030° 11 - 20 kt METAR CYYC 021800Z 03011G20KT 1/8SM R35L/2800V3000FT/N R29/3000V4000FT/D R35R/3000FT/N +SN VV010 M17/M20 A2965 RMK SN8 /S05/ SLP129
10:41
L
-17 °C ¼ mi 1.000 ft 360° 360° 13 kt METAR CYYC 021741Z 36013KT 1/4SM R35L/3500V5000FT/D R29/4500VP6000FT/D R35R/4000V6000FT/D +SN VV010 M17/M20 A2965 RMK SN8 SLP127
10:29
L
-17 °C ¾ mi 1.500 ft 010° 010° 13 - 20 kt METAR CYYC 021729Z 01013G20KT 3/4SM R35L/P6000FT/N R29/P6000FT/N R35R/P6000FT/D -SN VV015 M17/M20 A2965 RMK SN8 SLP128
10:00
I
-17 °C 1¼ mi 3.200 ft 010° 010° 13 - 21 kt METAR CYYC 021700Z 01013G21KT 1 1/4SM -SN OVC032 M17/M20 A2965 RMK ST8 /S04/ SLP127
09:00
I
-17 °C 1¼ mi 4.500 ft 020° 020° 10 - 15 kt METAR CYYC 021600Z 02010G15KT 1 1/4SM -SN OVC045 M17/M20 A2965 RMK ST8 SLP129
08:43
I
-17 °C 1½ mi 4.500 ft 030° 030° 11 kt METAR CYYC 021543Z 03011KT 1 1/2SM -SN OVC045 M17/M20 A2966 RMK ST8 SLP133
08:22
I
-17 °C 1¼ mi 2.200 ft 030° 030° 9 kt METAR CYYC 021522Z 03009KT 1 1/4SM R35L/4500VP6000FT/U -SN VV022 M17/M20 A2967 RMK SN8 SLP134
08:00
I
-17 °C 1¼ mi 2.800 ft 040° 040° 11 kt METAR CYYC 021500Z 04011KT 1 1/4SM -SN VV028 M17/M20 A2967 RMK SN8 /SO3/ SLP134
07:35
L
-17 °C ¾ mi 1.800 ft 050° 050° 13 kt METAR CYYC 021435Z 05013KT 3/4SM R35L/P6000FT/D R29/P6000FT/U R35R/P6000FT/U -SN VV018 M17/M19 A2966 RMK SN8 SLP132
07:25
L
-17 °C ¾ mi 900 ft 040° 040° 11 kt METAR CYYC 021425Z 04011KT 3/4SM R35L/P6000FT/D R29/P6000FT/U R35R/P6000FT/D -SN VV009 M17/M19 A2966 RMK SN8 SLP131
07:08
I
-16 °C 1 mi 1.200 ft 050° 050° 13 kt METAR CYYC 021408Z 05013KT 1SM R35L/P6000FT/D R29/P6000FT/N R35R/P6000FT/D -SN BR OVC012 M16/M19 A2966 RMK SC8 SLP131
06:45
I
-16 °C 2 mi 3.400 ft 050° 050° 12 kt METAR CYYC 021345Z 05012KT 2SM -SN BR FEW006 OVC034 M16/M19 A2966 RMK SF1SC8 SF TR SLP131
06:00
M
-15 °C 4 mi 3.100 ft 040° 040° 9 kt METAR CYYC 021300Z 04009KT 4SM -SN BR OVC031 M15/M18 A2966 RMK SC8 /S01/ SLP129
05:33
V
-15 °C 5 mi 3.100 ft 030° 030° 8 kt METAR CYYC 021233Z 03008KT 5SM -SN BR OVC031 M15/M18 A2965 RMK SC8 SLP125
05:00
I
-15 °C 2½ mi 3.000 ft 030° 030° 10 kt METAR CYYC 021200Z 03010KT 2 1/2SM -SN BR BKN030 OVC044 M15/M17 A2964 RMK SC6SC2 SLP121
04:00
I
-15 °C 2 mi 3.900 ft 080° 080° 11 kt METAR CYYC 021100Z 08011KT 2SM -SN BR SCT027 OVC039 M15/M17 A2964 RMK SC3SC5 SLP122
03:00
I
-14 °C 2 mi 2.300 ft 070° 070° 9 kt METAR CYYC 021000Z 07009KT 2SM -SN BR OVC023 M14/M16 A2964 RMK SC8 /S03/ SLP120
02:23
I
-14 °C 1¼ mi 1.700 ft 050° 050° 10 kt METAR CYYC 020923Z 05010KT 1 1/4SM R17R/4000VP6000FT/U R29/5000VP6000FT/U R35R/4500VP6000FT/U -SN BR OVC017 M14/M16 A2963 RMK SC8 SLP118
02:00
L
-14 °C ⅝ mi 1.000 ft 050° 050° 8 kt METAR CYYC 020900Z 05008KT 5/8SM R17R/3500V4000FT/N R29/5500VP6000FT/U R35R/5000VP6000FT/D -SN BR OVC010 M14/M16 A2965 RMK SC8 /S02/ SLP125
01:38
L
-14 °C ½ mi 600 ft 070° 070° 11 - 17 kt METAR CYYC 020838Z 07011G17KT 1/2SM R17R/5500VP6000FT/D R29/P6000FT/D R35R/P6000FT/D SN FZFG OVC006 M14/M16 A2966 RMK SC8 SLP126
01:35
L
-14 °C ⅝ mi 700 ft 080° 080° 13 kt METAR CYYC 020835Z 08013KT 5/8SM R17R/P6000FT/D R29/P6000FT/D R35R/P6000FT/D -SN BR OVC007 M14/M15 A2966 RMK SC8 SLP126
01:00
I
-13 °C 1¼ mi 600 ft 080° 080° 13 kt METAR CYYC 020800Z 08013KT 1 1/4SM -SN BR OVC006 M13/M15 A2966 RMK SC8 SLP127
00:00
I
-13 °C 1¼ mi 600 ft 080° 080° 14 kt METAR CYYC 020700Z 08014KT 1 1/4SM -SN BR OVC006 M13/M15 A2965 RMK SC8 SLP125

1 de março de 2024

Hora Código Clima Temp. Visibilidade Tecto Vento METAR/SPECI
23:00
I
-13 °C 2½ mi 700 ft 100° 100° 9 - 15 kt METAR CYYC 020600Z 10009G15KT 2 1/2SM -SN BR OVC007 M13/M15 A2967 RMK SC8 PRESRR SLP129
22:00
I
-13 °C 3 mi 700 ft 100° 100° 12 - 18 kt METAR CYYC 020500Z 10012G18KT 3SM -SN BR OVC007 M13/M14 A2964 RMK SC8 SLP120
21:00
M
-13 °C 4 mi 1.100 ft 100° 100° 11 - 16 kt METAR CYYC 020400Z 10011G16KT 080V140 4SM -SN BR FEW007 OVC011 M13/M15 A2964 RMK SF1SC8 SF TR SLP121
20:00
I
-12 °C 4 mi 900 ft 110° 110° 11 - 16 kt METAR CYYC 020300Z 11011G16KT 4SM -SN BR BKN009 OVC019 M12/M14 A2965 RMK SF5SC3 SLP123
19:33
M
-12 °C 4 mi 2.000 ft 110° 110° 12 kt METAR CYYC 020233Z 11012KT 4SM -SN BR FEW011 OVC020 M12/M14 A2964 RMK SF1SC8 SF TR SLP119
19:00
M
-13 °C 8 mi 2.100 ft 100° 100° 10 kt METAR CYYC 020200Z 10010KT 340V110 8SM OVC021 M13/M14 A2963 RMK SC8 SLP116
18:00
I
-12 °C 1½ mi 2.000 ft 090° 090° 12 - 18 kt METAR CYYC 020100Z 09012G18KT 1 1/2SM -SN BLSN OVC020 M12/M14 A2963 RMK SN3SC5 SLP115
17:46
I
-12 °C 1½ mi 1.200 ft 100° 100° 11 - 18 kt METAR CYYC 020046Z 10011G18KT 1 1/2SM -SN BLSN OVC012 M12/M14 A2964 RMK SN3SC5 SLP115
17:18
I
-12 °C 1¼ mi 1.200 ft 100° 100° 13 - 20 kt METAR CYYC 020018Z 10013G20KT 1 1/4SM R17R/5000VP6000FT/U -SN BLSN VV012 M12/M14 A2963 RMK SN8 SLP111
17:00
I
-12 °C 1½ mi 1.300 ft 100° 100° 12 kt METAR CYYC 020000Z 10012KT 1 1/2SM -SN BLSN VV013 M12/M14 A2963 RMK SN8 SLP111
16:44
I
-12 °C 1 mi 1.600 ft 100° 100° 13 - 19 kt METAR CYYC 012344Z 10013G19KT 1SM R35L/5000VP6000FT/U R29/P6000FT/D R35R/P6000FT/U -SN BLSN OVC016 M12/M14 A2962 RMK SN5SC3 SLP108
16:34
L
-12 °C ¾ mi 800 ft 100° 100° 11 - 17 kt METAR CYYC 012334Z 10011G17KT 3/4SM R35L/5000VP6000FT/D R29/P6000FT/N R35R/P6000FT/N -SN BLSN VV008 M12/M15 A2962 RMK SN8 SLP109
16:00
I
-12 °C 1½ mi 2.400 ft 090° 090° 13 - 18 kt METAR CYYC 012300Z 09013G18KT 1 1/2SM -SN BLSN OVC024 M12/M15 A2961 RMK SC8 SLP106
15:28
I
-12 °C 1½ mi 1.900 ft 090° 090° 13 kt METAR CYYC 012228Z 09013KT 1 1/2SM -SN BLSN OVC019 M12/M15 A2962 RMK SC8 SLP107
15:16
I
-12 °C 1 mi 2.400 ft 090° 090° 12 - 18 kt METAR CYYC 012216Z 09012G18KT 1SM R35L/P6000FT/N R29/P6000FT/N R35R/P6000FT/N -SN BLSN OVC024 M12/M14 A2962 RMK SC8 SLP107
15:00
L
-12 °C ¾ mi 1.000 ft 080° 080° 15 kt METAR CYYC 012200Z 08015KT 3/4SM R35L/P6000FT/D R29/P6000FT/D R35R/P6000FT/N -SN BLSN VV010 M12/M15 A2961 RMK SN8 SLP105
14:53
L
-12 °C ¼ mi 700 ft 090° 090° 15 kt METAR CYYC 012153Z 09015KT 1/4SM R35L/P6000FT/N R29/P6000FT/N R35R/P6000FT/N -SN BLSN VV007 M12/M15 A2962 RMK SN8 VIS 1 N SLP106
14:00
I
-12 °C 1½ mi 2.100 ft 070° 070° 12 - 17 kt METAR CYYC 012100Z 07012G17KT 1 1/2SM -SN BR OVC021 M12/M15 A2962 RMK ST8 SLP107
13:44
I
-13 °C 1 mi 2.000 ft 090° 090° 13 kt METAR CYYC 012044Z 09013KT 1SM R35L/P6000FT/N R29/P6000FT/N R35R/P6000FT/N -SN BR OVC020 M13/M15 A2962 RMK ST8 SLP109
13:00
I
-13 °C 2¼ mi 2.100 ft 070° 070° 12 kt METAR CYYC 012000Z 07012KT 2 1/4SM -SN BR OVC021 M13/M16 A2963 RMK ST8 PCPN VRY LGT SLP112
12:29
I
-13 °C 2¼ mi 1.000 ft 080° 080° 14 kt METAR CYYC 011929Z 08014KT 2 1/4SM -SN BR OVC010 M13/M16 A2963 RMK ST8 PCPN VRY LGT SLP111
12:14
I
-13 °C 1¼ mi 1.900 ft 080° 080° 13 kt METAR CYYC 011914Z 08013KT 1 1/4SM -SN BR OVC019 M13/M16 A2963 RMK ST8 PCPN VRY LGT SLP112
12:00
I
-13 °C 2½ mi 2.000 ft 080° 080° 13 kt METAR CYYC 011900Z 08013KT 2 1/2SM -SN BR OVC020 M13/M16 A2963 RMK ST8 PCPN VRY LGT SLP112
11:31
I
-13 °C 2½ mi 2.100 ft 070° 070° 12 kt METAR CYYC 011831Z 07012KT 2 1/2SM -SN OVC021 M13/M16 A2964 RMK ST8 SLP113
11:17
M
-13 °C 4 mi 2.000 ft 070° 070° 10 - 15 kt METAR CYYC 011817Z 07010G15KT 4SM -SN OVC020 M13/M16 A2964 RMK ST8 SLP114
11:00
I
-13 °C 2¼ mi 1.600 ft 070° 070° 12 kt METAR CYYC 011800Z 07012KT 2 1/4SM -SN OVC016 M13/M16 A2964 RMK SC8 /S02/ SLP114
10:00
I
-13 °C 2½ mi 2.500 ft 070° 070° 11 kt METAR CYYC 011700Z 07011KT 2 1/2SM -SN OVC025 M13/M16 A2963 RMK ST8 SLP113
09:46
I
-13 °C 2¼ mi 2.500 ft 080° 080° 12 kt METAR CYYC 011646Z 08012KT 2 1/4SM -SN VV025 M13/M16 A2963 RMK SN8 SLP112
09:38
I
-13 °C 1 mi 2.400 ft 080° 080° 13 kt METAR CYYC 011638Z 08013KT 1SM R35L/P6000FT/U R29/6000FT/U R35R/P6000FT/U -SN VV024 M13/M16 A2962 RMK SN8 SLP109
09:30
L
-13 °C ½ mi 1.400 ft 080° 080° 13 kt METAR CYYC 011630Z 08013KT 1/2SM R35L/P6000FT/U R29/6000FT/D R35R/P6000FT/N SN VV014 M13/M16 A2962 RMK SN8 SLP109
09:12
L
-13 °C ¾ mi 2.000 ft 060° 060° 9 kt METAR CYYC 011612Z 06009KT 3/4SM R35L/P6000FT/U R29/P6000FT/N R35R/P6000FT/N -SN VV020 M13/M16 A2962 RMK SN8 SLP108
09:00
I
-13 °C 1 mi 2.000 ft 070° 070° 10 - 17 kt METAR CYYC 011600Z 07010G17KT 1SM R35L/P6000FT/N R29/P6000FT/N R35R/P6000FT/N -SN VV020 M13/M16 A2961 RMK SN8 SLP107
08:43
L
-13 °C ½ mi 1.400 ft 050° 050° 9 kt METAR CYYC 011543Z 05009KT 1/2SM R35L/3500V5000FT/D R29/5000V6000FT/D R35R/6000FT/D SN VV014 M13/M16 A2960 RMK SN8 SLP104
08:27
L
-14 °C ¼ mi 1.600 ft 050° 050° 10 - 15 kt METAR CYYC 011527Z 05010G15KT 1/4SM R35L/4000VP6000FT/D R29/6000FT/N R35R/P6000FT/D -SN FZFG VV016 M14/M16 A2960 RMK SN8 SLP103
08:00
L
-13 °C ¾ mi 1.500 ft 060° 060° 10 - 16 kt METAR CYYC 011500Z 06010G16KT 3/4SM R35L/P6000FT/D R29/P6000FT/N R35R/P6000FT/D -SN BR VV015 M13/M16 A2959 RMK SN8 SLP101
07:00
I
-13 °C 1¼ mi 2.300 ft 080° 080° 14 kt METAR CYYC 011400Z 08014KT 1 1/4SM -SN BR SCT009 OVC023 M13/M15 A2959 RMK CF3SC5 /S01/ SLP096
06:00
M
-12 °C 3 mi 1.600 ft 090° 090° 11 kt METAR CYYC 011300Z 09011KT 3SM -SN BR OVC016 M12/M14 A2958 RMK SC8 SLP090
05:00
M
-12 °C 5 mi 1.400 ft 080° 080° 14 kt METAR CYYC 011200Z 08014KT 5SM -SN BR OVC014 M12/M14 A2955 RMK SC8 /S02/ SLP078
04:47
M
-11 °C 4 mi 1.200 ft 080° 080° 14 kt METAR CYYC 011147Z 08014KT 4SM -SN BR OVC012 M11/M14 A2955 RMK SC8 SLP076
04:27
M
-11 °C 6 mi 1.200 ft 090° 090° 9 kt METAR CYYC 011127Z 09009KT 6SM BR BKN012 OVC034 M11/M14 A2955 RMK SC5SC3 SLP076
04:00
V
-11 °C 8 mi 8.200 ft 090° 090° 9 kt METAR CYYC 011100Z 09009KT 8SM FEW032 BKN082 OVC170 M11/M14 A2954 RMK SC2AC4AS2 SLP071
03:00
V
-11 °C 8 mi 17.000 ft 030° 030° 6 kt METAR CYYC 011000Z 03006KT 8SM FEW073 SCT091 OVC170 M11/M13 A2950 RMK AC2AC1AS5 SLP056
02:00
V
-11 °C 8 mi 15.000 ft 070° 070° 7 kt METAR CYYC 010900Z 07007KT 010V070 8SM SCT069 OVC150 M11/M13 A2949 RMK AC3AC5 SLP052
01:00
V
-11 °C 5 mi 8.100 ft 020° 020° 8 kt METAR CYYC 010800Z 02008KT 5SM -SN BR SCT021 BKN081 OVC170 M11/M13 A2947 RMK CF4AC3AC1 SLP044
00:00
I
-9 °C 1¼ mi 1.900 ft 010° 010° 6 kt METAR CYYC 010700Z 01006KT 1 1/4SM -SN BR OVC019 M09/M11 A2944 RMK SC8 /S01/ SLP012

29 de fevereiro de 2024

Hora Código Clima Temp. Visibilidade Tecto Vento METAR/SPECI
23:00
I
-9 °C 1¼ mi 3.300 ft 350° 350° 7 kt METAR CYYC 010600Z 35007KT 1 1/4SM -SN BR FEW014 OVC033 M09/M11 A2943 RMK CF2SC6 /S02/ PRESRR SLP009
22:00
I
-10 °C 1¼ mi 2.400 ft 030° 030° 9 kt METAR CYYC 010500Z 03009KT 1 1/4SM -SN BR FEW012 BKN024 OVC039 M10/M12 A2940 RMK SF2SC4SC2 SLP001
21:00
I
-10 °C 2½ mi 2.400 ft 350° 350° 14 - 20 kt METAR CYYC 010400Z 35014G20KT 2 1/2SM -SN BR OVC024 M10/M12 A2937 RMK SC8 /S01/ PRESRR SLP993
20:00
M
-11 °C 6 mi 2.200 ft 010° 010° 14 - 20 kt METAR CYYC 010300Z 01014G20KT 6SM -SN BR FEW010 OVC022 M11/M13 A2930 RMK SF1SC8 SF TR SLP973
19:50
M
-10 °C 6 mi 2.100 ft 360° 360° 10 - 16 kt METAR CYYC 010250Z 36010G16KT 6SM BR FEW010 OVC021 M10/M13 A2930 RMK SF1SC8 SF TR SLP971
19:00
M
-10 °C 15 mi 2.200 ft 040° 040° 12 kt METAR CYYC 010200Z 04012KT 15SM FEW010 OVC022 M10/M12 A2928 RMK SF1ST8 SF TR SLP963
18:00
M
-9 °C 4 mi 2.100 ft 360° 360° 13 kt METAR CYYC 010100Z CCA 36013KT 330V040 4SM -SN FEW010 OVC021 M09/M11 A2928 RMK SF1SC7 VIS LWR N / /S01/ SLP963
18:07
M
-9 °C 8 mi 2.200 ft 360° 360° 10 - 17 kt METAR CYYC 010107Z 36010G17KT 8SM FEW010 OVC022 M09/M11 A2927 RMK SF1ST8 SF TR SLP960
17:52
I
-9 °C 1 mi 2.100 ft 350° 350° 8 kt METAR CYYC 010052Z 35008KT 310V040 1SM R35L/5000VP6000FT/U R29/6000FT/U R35R/5000VP6000FT/U -SN VV021 M09/M10 A2929 RMK SN8 PRESRR SLP965
17:13
L
-8 °C ⅛ mi 700 ft 360° 360° 14 - 25 kt METAR CYYC 010013Z 36014G25KT 1/8SM R35L/3000VP6000FT/D R29/3000VP6000FT/D R35R/4000VP6000FT/D +SN VV007 M08/M09 A2922 RMK SN8 PRESFR SLP940
17:06
L
-7 °C ¼ mi 800 ft 010° 010° 18 - 25 kt METAR CYYC 010006Z 01018G25KT 1/4SM R35L/3500VP6000FT/D R29/P6000FT/D R35R/P6000FT/U +SG VV008 M07/M10 A2923 RMK SN8 PRESFR SLP942
17:00
I
-7 °C 1 mi 2.000 ft 010° 010° 18 - 24 kt METAR CYYC 010000Z 01018G24KT 1SM R35L/P6000FT/D R29/P6000FT/U R35R/P6000FT/D -SG VV020 M07/M10 A2924 RMK SN8 SLP951
16:51
I
-6 °C 1 mi 2.800 ft 360° 360° 11 - 19 kt METAR CYYC 292351Z 36011G19KT 1SM R35L/P6000FT/N R29/P6000FT/N R35R/P6000FT/D -SG VV028 M06/M10 A2925 RMK SN8 SLP953
16:00
V
-6 °C 15 mi 3.200 ft 350° 350° 17 - 24 kt METAR CYYC 292300Z 35017G24KT 15SM SCT017 BKN032 OVC250 M06/M10 A2920 RMK SC3SC4CI1 SLP936
15:00
V
-5 °C 15 mi 25.000 ft 350° 350° 21 - 30 kt METAR CYYC 292200Z CCA 35021G30KT 15SM FEW110 BKN250 M05/M10 A2919 RMK AC1CI6 CONTRAILS SLP930
14:00
V
-5 °C 15 mi 25.000 ft 360° 360° 22 - 28 kt METAR CYYC 292100Z 36022G28KT 15SM FEW020 BKN250 M05/M10 A2917 RMK SC1CI5 SC TR CC ASOCTD SLP920
13:00
V
-4 °C 15 mi 25.000 ft 020° 020° 26 - 41 kt METAR CYYC 292000Z 02026G41KT 270V050 15SM FEW056 BKN250 M04/M09 A2913 RMK SC1CI7 SC TR TCU AND CC ASOCTD PRESRR SLP907
12:53
V
0 °C 15 mi 25.000 ft Var Var 24 - 35 kt METAR CYYC 291953Z VRB24G35KT 15SM FEW056 BKN250 00/M11 A2913 RMK SC1CI7 SC TR TCU AND CC ASOCTD PRESRR SLP902
12:00
V
9 °C 15 mi 25.000 ft 200° 200° 18 - 26 kt METAR CYYC 291900Z 20018G26KT 15SM FEW041 BKN250 09/M01 A2910 RMK SC1CI7 SC TR SLP880 DENSITY ALT 4800FT
11:00
V
9 °C 15 mi 25.000 ft 200° 200° 20 - 34 kt METAR CYYC 291800Z 20020G34KT 15SM BKN250 09/M02 A2909 RMK CI7 SLP885 DENSITY ALT 4700FT
10:00
V
7 °C 15 mi 25.000 ft 200° 200° 17 - 28 kt METAR CYYC 291700Z 20017G28KT 15SM BKN250 07/M01 A2910 RMK CI6 SLP884 DENSITY ALT 4500FT
09:00
V
6 °C 15 mi - 170° 170° 11 - 19 kt METAR CYYC 291600Z 17011G19KT 130V210 15SM SCT250 06/M02 A2910 RMK CI4 CC ASOCTD SLP891 DENSITY ALT 4300FT
08:00
V
4 °C 15 mi - 190° 190° 10 - 19 kt METAR CYYC 291500Z 19010G19KT 130V220 15SM SCT250 04/M02 A2912 RMK CI3 CC ASOCTD SLP899 DENSITY ALT 4200FT
07:00
V
5 °C 15 mi - 210° 210° 15 - 20 kt METAR CYYC 291400Z 21015G20KT 15SM SCT220 05/M03 A2912 RMK CI3 SLP901 DENSITY ALT 4300FT
06:00
V
4 °C 15 mi - 180° 180° 5 kt METAR CYYC 291300Z 18005KT 130V230 15SM SCT240 04/M04 A2913 RMK CI3 SLP900 DENSITY ALT 4100FT
05:00
V
2 °C 15 mi 24.000 ft 150° 150° 5 kt METAR CYYC 291200Z 15005KT 100V210 15SM BKN240 02/M05 A2915 RMK CI5 SLP908
04:00
V
1 °C 15 mi 24.000 ft 120° 120° 6 kt METAR CYYC 291100Z 12006KT 15SM BKN240 01/M05 A2917 RMK CI5 SLP914
03:00
V
2 °C 15 mi - 140° 140° 12 - 18 kt METAR CYYC 291000Z 14012G18KT 15SM FEW230 02/M05 A2918 RMK CI2 SLP916
02:00
V
2 °C 15 mi - 160° 160° 14 kt METAR CYYC 290900Z 16014KT 15SM FEW220 02/M05 A2920 RMK CI1 SLP927
01:00
V
3 °C 15 mi - 170° 170° 5 kt METAR CYYC 290800Z 17005KT 130V230 15SM FEW230 03/M06 A2922 RMK CI1 SLP933 DENSITY ALT 3900FT
00:00
V
0 °C 15 mi - 140° 140° 6 kt METAR CYYC 290700Z 14006KT 15SM SCT220 M00/M07 A2924 RMK CI3 SLP950

28 de fevereiro de 2024

Hora Código Clima Temp. Visibilidade Tecto Vento METAR/SPECI
23:00
V
-4 °C 15 mi - 160° 160° 8 kt METAR CYYC 290600Z 16008KT 140V210 15SM FEW230 M04/M08 A2924 RMK CI1 SLP963